Flight Track Log - Related Links

Times and Time Zones

All times are in EDT time to prevent confusion due to time zone crossing. See the SWA407 flight status page for this flight to view local times or setup timezone preferences in your user account.

Time Position Orientation Groundspeed Altitude Reporting Facility
EDT Latitude Longitude Course Direction KTS MPH feet Rate Location/Type
Thu 07:11:41 PM 42.9333 -78.7333 174° South 146 168 2,100  Level Buffalo TRACON
Thu 07:12:17 PM 42.9167 -78.7667 236° Southwest 164 189 3,400 2,878 Climbing Buffalo TRACON
Thu 07:13:44 PM 42.8189 -78.7547 175° South 247 284 8,000 3,265 Climbing Cleveland Center
Thu 07:14:44 PM 42.7456 -78.7397 171° South 263 303 11,400 3,200 Climbing Cleveland Center
Thu 07:15:44 PM 42.6558 -78.7228 172° South 292 336 14,400 1,800 Climbing Cleveland Center
Thu 07:16:44 PM 42.5575 -78.7031 172° South 334 384 15,000 650 Climbing Cleveland Center
Thu 07:17:00 PM 42.3364 -78.6457 174° South  Level FlightAware Approximate
Thu 07:17:44 PM 42.4614 -78.6861 173° South 352 405 15,700  Level Cleveland Center
Thu 07:18:44 PM 42.3736 -78.6692 172° South 357 411 19,100 3,450 Climbing Cleveland Center
Thu 07:19:44 PM 42.2708 -78.6469 171° South 363 418 22,600 1,950 Climbing Cleveland Center
Thu 07:20:44 PM 42.1903 -78.5597 141° Southeast 363 418 23,000 200 Climbing Cleveland Center
Thu 07:21:44 PM 42.1008 -78.4533 139° Southeast 368 423 23,000  Level Cleveland Center
Thu 07:22:44 PM 42.0239 -78.3553 137° Southeast 374 430 23,000  Level Cleveland Center
Thu 07:23:44 PM 41.9428 -78.2606 139° Southeast 379 436 23,000  Level Cleveland Center
Thu 07:25:19 PM 41.8197 -78.1078 137° Southeast 396 456 23,000  Level New York Center
Thu 07:26:20 PM 41.7403 -78.0100 137° Southeast 396 456 23,000  Level New York Center
Thu 07:27:20 PM 41.6586 -77.9122 138° Southeast 396 456 23,000  Level New York Center
Thu 07:28:17 PM 41.5792 -77.8150 138° Southeast 391 450 23,000  Level New York Center
Thu 07:29:18 PM 41.4992 -77.7208 139° Southeast 391 450 23,000  Level New York Center
Thu 07:30:18 PM 41.4194 -77.6239 138° Southeast 391 450 23,000 -347 Level New York Center
Thu 07:31:19 PM 41.3394 -77.5300 139° Southeast 391 450 22,300 -843 Descending New York Center
Thu 07:32:19 PM 41.2633 -77.4369 137° Southeast 391 450 21,300 -1,000 Descending New York Center
Thu 07:33:19 PM 41.1847 -77.3519 141° Southeast 386 444 20,300 -992 Descending New York Center
Thu 07:34:20 PM 41.1125 -77.2650 138° Southeast 372 428 19,300 -992 Descending New York Center
Thu 07:35:20 PM 41.0378 -77.1808 140° Southeast 361 415 18,300 -915 Descending New York Center
Thu 07:36:18 PM 40.9656 -77.0944 138° Southeast 361 415 17,500 -915 Descending New York Center
Thu 07:37:18 PM 40.8775 -77.0614 164° South 328 377 16,500 -1,000 Descending New York Center
Thu 07:38:18 PM 40.7869 -77.0394 170° South 328 377 15,500 -750 Descending New York Center
Thu 07:39:18 PM 40.6983 -77.0203 171° South 328 377 15,000 -200 Descending New York Center
Thu 07:40:18 PM 40.6203 -77.0022 170° South 333 383 15,100 50 Climbing New York Center
Thu 07:41:19 PM 40.5214 -76.9797 170° South 328 377 15,100 -50 Level New York Center
Thu 07:42:19 PM 40.4408 -76.9617 170° South 328 377 15,000 -686 Descending New York Center
Thu 07:44:49 PM 40.2167 -76.9000 168° South 311 358 12,700 -943 Descending Potomac TRACON
Thu 07:45:49 PM 40.1333 -76.8833 171° South 313 360 11,700 -1,000 Descending Potomac TRACON
Thu 07:46:49 PM 40.0500 -76.8667 171° South 295 339 10,700 -850 Descending Potomac TRACON
Thu 07:47:49 PM 39.9667 -76.8500 171° South 270 311 10,000 -350 Descending Potomac TRACON
Thu 07:48:49 PM 39.9000 -76.8333 169° South 260 299 10,000 -350 Level Potomac TRACON
Thu 07:49:49 PM 39.8333 -76.8167 169° South 264 304 9,300 -991 Descending Potomac TRACON
Thu 07:50:44 PM 39.7667 -76.8000 169° South 264 304 8,100 -1,339 Descending Potomac TRACON
Thu 07:51:50 PM 39.6833 -76.8000 180° South 255 293 6,600 -1,333 Descending Potomac TRACON
Thu 07:52:50 PM 39.6167 -76.7833 169° South 248 285 5,300 -1,316 Descending Potomac TRACON
Thu 07:53:44 PM 39.5500 -76.7833 180° South 237 273 4,100 -684 Descending Potomac TRACON
Thu 07:54:44 PM 39.5000 -76.8000 194° South 222 255 4,000 -50 Descending Potomac TRACON
Thu 07:55:44 PM 39.4333 -76.8000 180° South 223 257 4,000  Level Potomac TRACON
Thu 07:56:39 PM 39.3833 -76.8167 194° South 223 257 4,000  Level Potomac TRACON
Thu 07:57:39 PM 39.3167 -76.8333 191° South 226 260 4,000 -250 Level Potomac TRACON
Thu 07:58:39 PM 39.2500 -76.8333 180° South 207 238 3,500 -714 Descending Potomac TRACON
Thu 07:59:45 PM 39.2000 -76.8333 180° South 197 227 2,500 -810 Descending Potomac TRACON
Thu 08:00:45 PM 39.1667 -76.7833 131° Southeast 159 183 1,800 -744 Descending Potomac TRACON
Thu 08:01:46 PM 39.1833 -76.7333 67° East 141 162 1,000 -787 Descending Potomac TRACON
Thu 08:03:00 PM 39.1667 -76.6667 90° East  Level FlightAware Approximate
Thu 08:10:00 PM 39.1754 -76.6683 90° East  Level Estimated
Thu 08:11:00 PM 39.1754 -76.6683 90° East  Level Estimated
Thu 08:12:00 PM 39.1754 -76.6683 90° East  Level Estimated

Login

Don't have an account? Register now (free) for customized features, flight alerts, and more!